Time;durP1;ratioP1;P1;durP2;ratioP2;P2;SDS_P1;SDS_P2;PMS_P1;PMS_P2;Temp;Humidity;BMP_temperature;BMP_pressure;BME280_temperature;BME280_humidity;BME280_pressure;Samples;Min_cycle;Max_cycle;Signal;HPM_P1;HPM_P2
2023/01/31 00:00:01;;;;;;;;;14.00;14.00;;;;;7.20;64.65;102105.91;5037883;28;46193;-49
2023/01/31 00:02:26;;;;;;;;;16.00;16.00;;;;;7.19;64.39;102109.34;5038605;28;45910;-48
2023/01/31 00:04:51;;;;;;;;;18.50;15.00;;;;;7.19;64.81;102101.50;5036194;28;48743;-50
2023/01/31 00:07:17;;;;;;;;;16.25;16.25;;;;;7.19;64.97;102101.50;5038967;28;45504;-53
2023/01/31 00:09:42;;;;;;;;;18.50;17.50;;;;;7.19;64.46;102096.28;5038645;28;45484;-47
2023/01/31 00:12:07;;;;;;;;;14.50;13.25;;;;;7.19;64.12;102100.66;5038448;28;46623;-50
2023/01/31 00:14:33;;;;;;;;;16.00;16.00;;;;;7.19;65.06;102098.03;5037888;28;46263;-50
2023/01/31 00:16:58;;;;;;;;;20.75;17.25;;;;;7.19;64.45;102104.13;5038776;28;45565;-48
2023/01/31 00:19:23;;;;;;;;;17.00;16.50;;;;;7.19;65.00;102096.28;5037735;28;45488;-52
2023/01/31 00:21:48;;;;;;;;;17.00;15.25;;;;;7.20;64.62;102099.75;5036652;28;53793;-46
2023/01/31 00:24:14;;;;;;;;;21.50;18.25;;;;;7.19;64.49;102093.66;5037446;28;45667;-49
2023/01/31 00:26:40;;;;;;;;;18.75;18.50;;;;;7.20;64.41;102091.91;5038438;28;45418;-44
2023/01/31 00:29:05;;;;;;;;;11.75;11.00;;;;;7.18;64.65;102089.31;5038431;28;45434;-49
2023/01/31 00:31:32;;;;;;;;;16.75;16.75;;;;;7.16;64.14;102091.03;5036553;28;45459;-47
2023/01/31 00:33:58;;;;;;;;;26.50;24.00;;;;;7.14;64.59;102090.16;5037927;28;45385;-47
2023/01/31 00:36:30;;;;;;;;;25.00;21.25;;;;;7.11;64.66;102090.16;5020087;28;45324;-52
2023/01/31 00:38:58;;;;;;;;;19.00;18.50;;;;;7.08;64.76;102093.63;5036896;28;45475;-50
2023/01/31 00:41:25;;;;;;;;;20.75;20.75;;;;;7.09;64.50;102091.88;5037389;28;45628;-50
2023/01/31 00:43:51;;;;;;;;;23.25;20.25;;;;;7.10;65.25;102098.00;5037905;28;45454;-50
2023/01/31 00:46:19;;;;;;;;;24.00;22.00;;;;;7.10;64.71;102093.66;5038232;28;45406;-50
2023/01/31 00:48:44;;;;;;;;;22.50;20.25;;;;;7.08;64.82;102095.38;5037303;28;45354;-49
2023/01/31 00:51:09;;;;;;;;;23.75;23.25;;;;;7.07;64.89;102094.50;5036772;28;46488;-47
2023/01/31 00:53:35;;;;;;;;;22.75;22.75;;;;;7.06;65.10;102090.13;5037036;28;45421;-51
2023/01/31 00:56:12;;;;;;;;;27.75;25.50;;;;;7.05;65.15;102095.38;5036661;28;45522;-49
2023/01/31 00:58:38;;;;;;;;;21.00;21.00;;;;;6.98;64.91;102078.75;5037463;28;45527;-52
2023/01/31 01:01:12;;;;;;;;;21.75;21.00;;;;;7.05;65.32;102084.91;5037404;28;47231;-49
2023/01/31 01:03:38;;;;;;;;;22.25;22.25;;;;;7.04;64.91;102081.44;5034438;28;45440;-49
2023/01/31 01:06:05;;;;;;;;;26.25;25.25;;;;;7.03;64.68;102079.66;5037603;28;45496;-50
2023/01/31 01:08:31;;;;;;;;;21.50;20.00;;;;;7.00;64.94;102073.56;5036706;28;45608;-48
2023/01/31 01:11:06;;;;;;;;;23.25;21.00;;;;;6.97;64.98;102076.16;5036968;28;45505;-47
2023/01/31 01:13:32;;;;;;;;;24.25;24.00;;;;;6.96;65.01;102069.16;5035379;28;45619;-54
2023/01/31 01:16:06;;;;;;;;;26.00;24.75;;;;;6.94;65.01;102057.84;5037124;28;45460;-48
2023/01/31 01:18:34;;;;;;;;;24.50;24.25;;;;;6.96;65.18;102057.00;5035946;28;45531;-50
2023/01/31 01:21:13;;;;;;;;;28.25;26.00;;;;;6.89;64.84;102052.59;5037256;28;46400;-44
2023/01/31 01:23:40;;;;;;;;;23.50;23.50;;;;;6.91;65.36;102053.47;5036695;28;45576;-45
2023/01/31 01:26:11;;;;;;;;;27.75;23.50;;;;;6.89;65.45;102056.97;5036586;28;45790;-51
2023/01/31 01:28:36;;;;;;;;;11.75;10.25;;;;;6.91;65.51;102070.91;5037249;28;45453;-52
2023/01/31 01:31:07;;;;;;;;;25.75;22.50;;;;;6.89;65.24;102068.28;5036960;28;49744;-49
2023/01/31 01:33:32;;;;;;;;;19.50;19.00;;;;;6.91;65.14;102066.56;5036463;28;45384;-50
2023/01/31 01:36:06;;;;;;;;;18.50;17.25;;;;;6.92;64.96;102076.13;5036393;28;45461;-49
2023/01/31 01:38:36;;;;;;;;;23.00;21.50;;;;;6.90;65.21;102066.53;5036166;28;45475;-46
2023/01/31 01:41:03;;;;;;;;;20.50;20.50;;;;;6.89;65.01;102064.81;5036780;28;45416;-51
2023/01/31 01:43:46;;;;;;;;;21.50;21.25;;;;;6.93;65.09;102077.00;5034821;28;45484;-47
2023/01/31 01:46:38;;;;;;;;;21.00;19.50;;;;;6.93;65.60;102077.00;5036050;28;45658;-48
2023/01/31 01:49:15;;;;;;;;;16.75;15.00;;;;;6.92;65.28;102077.88;5027038;28;45451;-47
2023/01/31 01:51:43;;;;;;;;;19.50;15.50;;;;;6.88;65.07;102076.13;5035044;28;45467;-45
2023/01/31 01:54:14;;;;;;;;;11.50;11.00;;;;;6.86;64.96;102071.75;5037091;28;45381;-44
2023/01/31 01:56:45;;;;;;;;;15.75;14.50;;;;;6.84;65.34;102064.78;5036087;28;45452;-47
2023/01/31 01:59:22;;;;;;;;;13.25;13.25;;;;;6.84;65.56;102067.41;5036875;28;45322;-51
2023/01/31 02:01:49;;;;;;;;;16.50;12.75;;;;;6.82;65.22;102062.19;5035757;28;46238;-48
2023/01/31 02:04:24;;;;;;;;;17.00;16.50;;;;;6.80;65.53;102056.06;5036601;28;45738;-51
2023/01/31 02:06:50;;;;;;;;;14.00;14.00;;;;;6.80;65.35;102056.06;5036594;28;45472;-50
2023/01/31 02:09:39;;;;;;;;;12.25;12.00;;;;;6.80;65.80;102063.03;5036730;28;45483;-49
2023/01/31 02:12:05;;;;;;;;;23.50;19.50;;;;;6.79;65.78;102058.66;5035001;28;46338;-50
2023/01/31 02:14:30;;;;;;;;;15.25;12.25;;;;;6.80;66.10;102052.56;5036502;28;45479;-47
2023/01/31 02:16:55;;;;;;;;;12.00;12.00;;;;;6.79;65.39;102054.28;5034989;28;45477;-51
2023/01/31 02:19:50;;;;;;;;;18.50;15.25;;;;;6.80;66.15;102052.56;5035950;28;45617;-51
2023/01/31 02:22:25;;;;;;;;;23.75;20.50;;;;;6.79;65.81;102049.06;5028524;28;46311;-50
2023/01/31 02:25:21;;;;;;;;;18.00;15.50;;;;;6.78;65.66;102055.16;5035861;28;45617;-48
2023/01/31 02:28:05;;;;;;;;;16.00;13.75;;;;;6.80;66.06;102055.19;5028885;28;45436;-52
2023/01/31 02:31:10;;;;;;;;;23.25;20.00;;;;;6.80;65.35;102056.06;5034943;28;45383;-50
2023/01/31 02:33:51;;;;;;;;;25.25;21.50;;;;;6.82;65.29;102061.28;5018007;28;46492;-46
2023/01/31 02:36:25;;;;;;;;;25.00;20.25;;;;;6.78;65.44;102055.16;5035455;28;45682;-48
2023/01/31 02:39:04;;;;;;;;;20.50;19.00;;;;;6.75;65.13;102065.63;5035517;28;45547;-47
2023/01/31 02:41:58;;;;;;;;;25.25;20.50;;;;;6.75;65.37;102068.25;5028192;28;45373;-53
2023/01/31 02:47:46;;;;;;;;;21.50;20.25;;;;;6.71;65.64;102066.47;5034646;28;45436;-51
2023/01/31 02:50:26;;;;;;;;;27.75;24.50;;;;;6.68;65.35;102068.19;5028905;28;45527;-53
2023/01/31 02:53:01;;;;;;;;;23.50;23.50;;;;;6.67;65.18;102066.47;5035937;28;45381;-46
2023/01/31 02:58:35;;;;;;;;;29.25;24.50;;;;;6.64;65.73;102049.91;5034096;28;45491;-50
2023/01/31 03:01:03;;;;;;;;;29.50;24.00;;;;;6.63;65.57;102061.19;5036070;28;45468;-51
2023/01/31 03:03:31;;;;;;;;;24.00;20.00;;;;;6.64;65.25;102059.47;5034935;28;45582;-52
2023/01/31 03:06:24;;;;;;;;;23.25;21.00;;;;;6.62;65.27;102058.59;5035642;28;45468;-50
2023/01/31 03:08:54;;;;;;;;;21.75;21.50;;;;;6.59;65.52;102053.34;5034669;28;45452;-50
2023/01/31 03:11:34;;;;;;;;;23.25;21.75;;;;;6.56;65.90;102046.38;5034255;28;45480;-50
2023/01/31 03:14:10;;;;;;;;;20.75;20.75;;;;;6.58;65.90;102041.13;5035617;28;45402;-51
2023/01/31 03:20:04;;;;;;;;;22.50;20.75;;;;;6.57;65.82;102058.56;5031886;28;45694;-51
2023/01/31 03:22:45;;;;;;;;;22.25;20.75;;;;;6.56;65.60;102058.56;5034981;28;45557;-47
2023/01/31 03:25:14;;;;;;;;;22.50;22.50;;;;;6.55;65.53;102057.69;5035607;28;45457;-47
2023/01/31 03:27:42;;;;;;;;;24.50;24.50;;;;;6.52;65.79;102064.63;5033866;28;46389;-51
2023/01/31 03:30:15;;;;;;;;;24.50;20.00;;;;;6.50;65.86;102063.75;5034956;28;45787;-50
2023/01/31 03:32:58;;;;;;;;;25.00;19.50;;;;;6.49;65.72;102068.09;5017429;28;45422;-53
2023/01/31 03:35:30;;;;;;;;;19.50;18.50;;;;;6.45;65.77;102068.06;5035352;28;45451;-53
2023/01/31 03:38:07;;;;;;;;;21.00;19.75;;;;;6.48;65.23;102074.22;5034331;28;46220;-51
2023/01/31 03:40:39;;;;;;;;;23.75;19.75;;;;;6.45;65.42;102065.47;5035249;28;45349;-46
2023/01/31 03:43:14;;;;;;;;;23.00;23.00;;;;;6.44;65.39;102069.81;5034664;28;45466;-51
2023/01/31 03:45:55;;;;;;;;;25.25;21.25;;;;;6.44;65.29;102068.97;5035470;28;45568;-50
2023/01/31 03:48:27;;;;;;;;;24.50;21.00;;;;;6.44;65.93;102067.22;5015352;28;47384;-46
2023/01/31 03:51:03;;;;;;;;;19.25;16.75;;;;;6.41;65.93;102069.81;5035122;28;45472;-49
2023/01/31 03:53:53;;;;;;;;;12.50;12.50;;;;;6.39;66.59;102066.31;5034848;28;45482;-50
2023/01/31 03:56:35;;;;;;;;;14.75;12.25;;;;;6.36;66.75;102069.78;5027421;28;45369;-50
2023/01/31 03:59:10;;;;;;;;;7.75;7.75;;;;;6.31;66.68;102065.38;5034437;28;46806;-46
2023/01/31 04:01:41;;;;;;;;;10.25;9.25;;;;;6.33;66.70;102069.75;5034412;28;45435;-49
2023/01/31 04:04:11;;;;;;;;;10.75;10.75;;;;;6.37;66.81;102068.94;5035377;28;45377;-52
2023/01/31 04:06:37;;;;;;;;;11.50;10.25;;;;;6.36;66.83;102058.44;5033963;28;45365;-50
2023/01/31 04:09:03;;;;;;;;;11.50;9.25;;;;;6.30;67.04;102056.69;5034256;28;46060;-55
2023/01/31 04:11:29;;;;;;;;;10.00;10.00;;;;;6.35;67.09;102069.78;5033751;28;45511;-46
2023/01/31 04:13:54;;;;;;;;;12.00;11.00;;;;;6.37;66.83;102063.69;5016725;28;45483;-53
2023/01/31 04:16:19;;;;;;;;;10.00;8.25;;;;;6.39;66.86;102063.69;5035275;28;45634;-47
2023/01/31 04:18:45;;;;;;;;;11.50;9.00;;;;;6.35;66.37;102065.44;5033801;28;45406;-47
2023/01/31 04:21:13;;;;;;;;;13.75;8.25;;;;;6.37;66.58;102065.44;5034114;28;45474;-53
2023/01/31 04:23:38;;;;;;;;;9.75;9.75;;;;;6.32;66.32;102070.63;5034490;28;45601;-45
2023/01/31 04:26:03;;;;;;;;;6.75;6.75;;;;;6.30;66.68;102069.75;5034326;28;45468;-45
2023/01/31 04:28:28;;;;;;;;;11.25;10.00;;;;;6.31;67.00;102057.56;5033118;28;53680;-50
2023/01/31 04:30:55;;;;;;;;;11.25;10.25;;;;;6.31;67.19;102066.25;5035134;28;52024;-54
2023/01/31 04:33:22;;;;;;;;;12.25;9.25;;;;;6.31;66.99;102070.63;5038358;28;45551;-53
2023/01/31 04:35:49;;;;;;;;;11.25;10.75;;;;;6.31;66.71;102071.47;5037364;28;45528;-53
2023/01/31 04:38:15;;;;;;;;;10.75;10.00;;;;;6.33;66.73;102066.28;5037187;28;45321;-54
2023/01/31 04:40:40;;;;;;;;;12.75;10.50;;;;;6.34;66.92;102071.53;5036400;28;45388;-48
2023/01/31 04:43:06;;;;;;;;;9.50;9.50;;;;;6.33;67.04;102074.13;5037582;28;45357;-49
2023/01/31 04:45:31;;;;;;;;;13.00;9.50;;;;;6.31;67.16;102071.47;5036623;28;45564;-46
2023/01/31 04:47:56;;;;;;;;;15.25;11.50;;;;;6.29;66.52;102075.84;5036968;28;45421;-49
2023/01/31 04:50:22;;;;;;;;;6.50;6.50;;;;;6.29;66.84;102060.19;5037016;28;45474;-45
2023/01/31 04:52:51;;;;;;;;;8.00;8.00;;;;;6.26;67.28;102068.00;5037162;28;46055;-50
2023/01/31 04:55:17;;;;;;;;;11.75;9.00;;;;;6.29;66.95;102059.31;5037134;28;45519;-50
2023/01/31 04:57:42;;;;;;;;;7.00;7.00;;;;;6.28;66.35;102058.41;5037100;28;45551;-50
2023/01/31 05:00:09;;;;;;;;;8.00;8.00;;;;;6.23;66.56;102054.88;5037774;28;45449;-49
2023/01/31 05:02:35;;;;;;;;;10.00;8.00;;;;;6.24;66.70;102054.03;5037150;28;45319;-54
2023/01/31 05:05:00;;;;;;;;;9.75;9.75;;;;;6.23;66.44;102060.13;5036997;28;45642;-48
2023/01/31 05:07:25;;;;;;;;;10.75;8.75;;;;;6.23;66.87;102060.13;5017905;28;46043;-48
2023/01/31 05:09:51;;;;;;;;;9.75;7.00;;;;;6.25;66.64;102060.13;5035770;28;45599;-49
2023/01/31 05:12:16;;;;;;;;;10.50;9.75;;;;;6.27;66.38;102055.81;5036422;28;45525;-49
2023/01/31 05:14:41;;;;;;;;;5.75;5.75;;;;;6.27;66.40;102056.66;5016013;28;45440;-49
2023/01/31 05:17:07;;;;;;;;;9.50;9.50;;;;;6.24;66.49;102042.72;5036483;28;45363;-51
2023/01/31 05:19:32;;;;;;;;;8.00;6.00;;;;;6.23;66.82;102048.78;5037390;28;45360;-48
2023/01/31 05:21:58;;;;;;;;;10.00;9.00;;;;;6.23;66.67;102035.72;5036894;28;45674;-51
2023/01/31 05:24:26;;;;;;;;;6.75;6.75;;;;;6.23;66.34;102036.59;5037545;28;45444;-51
2023/01/31 05:26:55;;;;;;;;;6.25;6.25;;;;;6.24;66.54;102040.97;5035705;28;46118;-52
2023/01/31 05:29:21;;;;;;;;;7.00;7.00;;;;;6.12;66.62;102027.84;5037330;28;45429;-53
2023/01/31 05:31:50;;;;;;;;;7.25;7.00;;;;;6.17;66.95;102041.81;5037120;28;45490;-49
2023/01/31 05:34:15;;;;;;;;;7.25;7.25;;;;;6.13;66.72;102040.06;5037494;28;45445;-49
2023/01/31 05:36:41;;;;;;;;;10.75;7.00;;;;;6.16;66.96;102042.69;5037377;28;45497;-50
2023/01/31 05:39:07;;;;;;;;;7.75;7.75;;;;;6.15;66.98;102041.81;5018256;28;45445;-49
2023/01/31 05:41:32;;;;;;;;;7.25;7.25;;;;;6.15;67.29;102051.34;5034915;28;45432;-51
2023/01/31 05:43:57;;;;;;;;;8.00;7.00;;;;;6.15;67.32;102057.47;5036487;28;45519;-50
2023/01/31 05:46:23;;;;;;;;;6.75;6.50;;;;;6.12;67.51;102061.78;5035971;28;48763;-50
2023/01/31 05:48:48;;;;;;;;;10.75;6.75;;;;;6.13;67.29;102064.44;5035099;28;45477;-54
2023/01/31 05:51:13;;;;;;;;;8.75;6.00;;;;;6.15;67.42;102067.03;5036852;28;45482;-51
2023/01/31 05:53:38;;;;;;;;;11.00;10.00;;;;;6.16;67.45;102067.06;5037028;28;45530;-50
2023/01/31 05:56:04;;;;;;;;;7.00;7.00;;;;;6.20;67.06;102065.31;5035420;28;47144;-47
2023/01/31 05:58:29;;;;;;;;;10.25;8.50;;;;;6.18;67.30;102061.84;5036222;28;45432;-50
2023/01/31 06:00:55;;;;;;;;;7.50;6.25;;;;;6.20;67.10;102065.31;5035683;28;45539;-52
2023/01/31 06:03:21;;;;;;;;;6.25;6.25;;;;;6.18;67.39;102056.63;5036640;28;45400;-51
2023/01/31 06:05:46;;;;;;;;;10.50;10.50;;;;;6.22;67.37;102054.91;5036658;28;45393;-51
2023/01/31 06:08:12;;;;;;;;;7.00;6.00;;;;;6.22;67.49;102063.59;5036608;28;45506;-48
2023/01/31 06:10:38;;;;;;;;;10.00;8.50;;;;;6.18;67.34;102054.88;5035558;28;45405;-51
2023/01/31 06:13:03;;;;;;;;;4.00;3.00;;;;;6.21;67.38;102056.66;5035420;28;45638;-49
2023/01/31 06:15:29;;;;;;;;;8.00;4.50;;;;;6.23;67.33;102043.56;5036594;28;47286;-48
2023/01/31 06:17:54;;;;;;;;;6.50;6.50;;;;;6.26;67.28;102047.09;5036659;28;45441;-51
2023/01/31 06:20:20;;;;;;;;;6.00;6.00;;;;;6.29;67.14;102054.94;5035863;28;45511;-45
2023/01/31 06:22:45;;;;;;;;;9.75;8.25;;;;;6.31;67.29;102042.75;5035983;28;45579;-44
2023/01/31 06:25:10;;;;;;;;;7.00;6.50;;;;;6.29;67.14;102049.72;5035806;28;47484;-48
2023/01/31 06:27:36;;;;;;;;;7.75;6.00;;;;;6.31;66.98;102050.56;5035583;28;45364;-48
2023/01/31 06:30:01;;;;;;;;;6.00;5.00;;;;;6.35;67.50;102065.44;5036603;28;45483;-51
2023/01/31 06:32:26;;;;;;;;;7.00;5.50;;;;;6.39;67.40;102071.53;5035589;28;45396;-49
2023/01/31 06:34:52;;;;;;;;;6.00;6.00;;;;;6.39;67.36;102075.03;5035588;28;45427;-53
2023/01/31 06:37:17;;;;;;;;;6.00;6.00;;;;;6.41;66.69;102081.13;5036039;28;45459;-47
2023/01/31 06:39:42;;;;;;;;;7.25;6.00;;;;;6.40;66.63;102083.75;5035909;28;45404;-53
2023/01/31 06:42:08;;;;;;;;;7.75;7.75;;;;;6.40;67.19;102084.63;5034368;28;45410;-51
2023/01/31 06:44:33;;;;;;;;;9.25;6.25;;;;;6.32;66.87;102083.69;5036018;28;45892;-52
2023/01/31 06:47:01;;;;;;;;;5.25;5.25;;;;;6.29;67.11;102083.69;5035507;28;45432;-45
2023/01/31 06:49:27;;;;;;;;;9.50;5.50;;;;;6.27;66.87;102093.25;5035921;28;45534;-51
2023/01/31 06:51:52;;;;;;;;;6.25;6.00;;;;;6.29;66.89;102091.53;5034190;28;45551;-50
2023/01/31 06:54:17;;;;;;;;;6.00;5.00;;;;;6.30;67.03;102088.03;5016480;28;45480;-48
2023/01/31 06:56:43;;;;;;;;;5.00;5.00;;;;;6.29;67.00;102085.44;5039564;28;47327;-52
2023/01/31 06:59:08;;;;;;;;;6.25;6.00;;;;;6.30;67.14;102089.78;5043841;28;45444;-43
2023/01/31 07:01:33;;;;;;;;;7.50;7.00;;;;;6.27;66.77;102093.25;5033868;28;45493;-48
2023/01/31 07:03:59;;;;;;;;;9.50;5.00;;;;;6.29;66.85;102091.53;5034614;28;45625;-51
2023/01/31 07:06:24;;;;;;;;;6.00;3.50;;;;;6.31;66.99;102091.53;5017117;28;45488;-52
2023/01/31 07:08:50;;;;;;;;;5.50;5.50;;;;;6.30;66.60;102085.44;5035290;28;45522;-48
2023/01/31 07:11:15;;;;;;;;;6.75;5.50;;;;;6.28;66.76;102084.53;5033067;28;45499;-52
2023/01/31 07:13:40;;;;;;;;;5.00;5.00;;;;;6.25;67.06;102092.34;5030834;28;46098;-49
2023/01/31 07:16:06;;;;;;;;;6.00;5.00;;;;;6.17;67.16;102086.22;5038207;28;45472;-50
2023/01/31 07:18:31;;;;;;;;;5.25;4.50;;;;;6.22;67.29;102089.72;5043603;28;46281;-48
2023/01/31 07:20:57;;;;;;;;;6.25;5.25;;;;;6.26;67.23;102093.22;5035710;28;45611;-52
2023/01/31 07:23:22;;;;;;;;;5.25;3.00;;;;;6.26;66.89;102103.69;5038204;28;45842;-50
2023/01/31 07:25:47;;;;;;;;;6.00;4.50;;;;;6.28;67.03;102092.38;5035650;28;45464;-54
2023/01/31 07:28:12;;;;;;;;;3.00;3.00;;;;;6.31;66.79;102099.34;5034869;28;45427;-46
2023/01/31 07:30:38;;;;;;;;;6.75;6.50;;;;;6.28;66.64;102094.13;5034285;28;45602;-48
2023/01/31 07:33:04;;;;;;;;;6.50;6.50;;;;;6.33;67.05;102087.19;5034301;28;45417;-48
2023/01/31 07:35:29;;;;;;;;;5.00;5.00;;;;;6.34;66.87;102097.66;5034793;28;45448;-52
2023/01/31 07:37:55;;;;;;;;;6.25;6.00;;;;;6.29;66.54;102099.38;5034467;28;45372;-52
2023/01/31 07:40:21;;;;;;;;;7.00;6.00;;;;;6.26;66.82;102103.69;5011960;28;45399;-55
2023/01/31 07:42:46;;;;;;;;;7.00;7.00;;;;;6.29;66.71;102101.09;5035018;28;46097;-52
2023/01/31 07:45:13;;;;;;;;;6.25;6.25;;;;;6.34;66.79;102099.38;5034803;28;45506;-48
2023/01/31 07:47:38;;;;;;;;;7.00;6.75;;;;;6.39;67.04;102090.72;5033199;28;45524;-51
2023/01/31 07:50:04;;;;;;;;;7.50;7.00;;;;;6.46;66.70;102089.00;5015916;28;45401;-49
2023/01/31 07:52:30;;;;;;;;;5.75;5.75;;;;;6.47;66.79;102080.28;5034595;28;46325;-51
2023/01/31 07:54:56;;;;;;;;;9.75;7.00;;;;;6.49;66.03;102091.63;5034654;28;45535;-49
2023/01/31 07:57:21;;;;;;;;;8.25;7.50;;;;;6.53;66.89;102090.78;5033851;28;45518;-51
2023/01/31 07:59:46;;;;;;;;;9.75;8.00;;;;;6.57;66.45;102097.78;5034324;28;49567;-53
2023/01/31 08:04:57;;;;;;;;;13.50;12.50;;;;;6.57;66.44;102091.69;5034468;28;45612;-52
2023/01/31 08:07:23;;;;;;;;;15.25;14.00;;;;;6.60;66.85;102103.00;5037860;28;45467;-50
2023/01/31 08:09:49;;;;;;;;;15.00;12.00;;;;;6.64;66.92;102114.38;5037526;28;45698;-50
2023/01/31 08:12:15;;;;;;;;;14.25;13.50;;;;;6.67;66.44;102103.06;5036445;28;45999;-53
2023/01/31 08:14:40;;;;;;;;;14.50;12.75;;;;;6.66;66.46;102101.31;5038020;28;45452;-48
2023/01/31 08:17:07;;;;;;;;;11.75;11.00;;;;;6.70;66.49;102103.94;5037890;28;45449;-52
2023/01/31 08:19:33;;;;;;;;;16.00;11.75;;;;;6.72;66.42;102104.84;5037938;28;45369;-53
2023/01/31 08:21:59;;;;;;;;;12.50;12.50;;;;;6.73;66.34;102105.69;5037480;28;45643;-52
2023/01/31 08:24:24;;;;;;;;;13.00;13.00;;;;;6.71;66.55;102104.81;5037470;28;45434;-50
2023/01/31 08:26:50;;;;;;;;;10.50;10.50;;;;;6.72;66.54;102112.69;5037563;28;45513;-48
2023/01/31 08:29:15;;;;;;;;;11.00;11.00;;;;;6.72;66.30;102114.44;5037794;28;45451;-51
2023/01/31 08:31:41;;;;;;;;;10.25;10.25;;;;;6.74;66.49;102121.38;5019638;28;45473;-50
2023/01/31 08:34:06;;;;;;;;;10.75;10.50;;;;;6.76;66.07;102118.78;5037365;28;45492;-48
2023/01/31 08:36:32;;;;;;;;;11.00;11.00;;;;;6.77;66.48;102115.28;5037785;28;45358;-50
2023/01/31 08:38:58;;;;;;;;;15.25;12.75;;;;;6.79;66.14;102109.22;5036145;28;45624;-53
2023/01/31 08:41:25;;;;;;;;;12.75;11.50;;;;;6.83;65.98;102115.34;5036466;28;45476;-49
2023/01/31 08:43:51;;;;;;;;;10.00;8.25;;;;;6.85;66.11;102124.94;5037231;28;45405;-55
2023/01/31 08:46:17;;;;;;;;;20.75;16.00;;;;;6.90;66.17;102127.56;5037530;28;45476;-49
2023/01/31 08:48:43;;;;;;;;;16.00;16.00;;;;;6.90;66.16;102126.69;5037305;28;45409;-51
2023/01/31 08:51:11;;;;;;;;;12.00;12.00;;;;;6.86;66.11;102124.06;5019194;28;46331;-51
2023/01/31 08:53:38;;;;;;;;;17.00;14.25;;;;;6.93;66.09;102132.84;5037347;28;45464;-52
2023/01/31 08:56:05;;;;;;;;;20.75;17.50;;;;;6.98;66.10;102138.06;5037127;28;45415;-52
2023/01/31 08:58:32;;;;;;;;;17.25;11.00;;;;;7.01;66.11;102140.69;5036879;28;45571;-49
2023/01/31 09:01:03;;;;;;;;;11.25;11.25;;;;;7.03;65.40;102138.94;5037190;28;45400;-53
2023/01/31 09:03:28;;;;;;;;;14.75;14.75;;;;;7.02;65.49;102138.09;5036936;28;45551;-51
2023/01/31 09:05:58;;;;;;;;;15.50;12.00;;;;;6.92;65.70;102106.66;5037313;28;45677;-55
2023/01/31 09:08:23;;;;;;;;;16.50;12.75;;;;;7.05;65.79;102122.41;5036420;28;45523;-53
2023/01/31 09:10:53;;;;;;;;;15.25;13.00;;;;;7.00;65.78;102107.56;5036195;28;45794;-51
2023/01/31 09:13:18;;;;;;;;;16.50;15.00;;;;;7.10;65.57;102117.19;5036030;28;45531;-54
2023/01/31 09:15:44;;;;;;;;;16.00;15.50;;;;;7.11;65.59;102116.31;5036861;28;45424;-50
2023/01/31 09:18:09;;;;;;;;;13.75;13.25;;;;;7.11;65.90;102113.69;5035878;28;45443;-52
2023/01/31 09:20:34;;;;;;;;;14.75;14.75;;;;;7.13;65.29;102122.44;5036966;28;45388;-50
2023/01/31 09:23:00;;;;;;;;;14.25;13.75;;;;;7.14;65.13;102128.53;5036972;28;45342;-54
2023/01/31 09:25:25;;;;;;;;;16.50;13.50;;;;;7.19;65.22;102127.69;5036765;28;45437;-52
2023/01/31 09:27:52;;;;;;;;;10.50;8.50;;;;;7.21;65.50;102120.72;5036879;28;45332;-45
2023/01/31 09:30:17;;;;;;;;;19.50;15.00;;;;;7.22;65.46;102130.28;5035921;28;45545;-53
2023/01/31 09:32:44;;;;;;;;;11.25;8.25;;;;;7.24;65.11;102133.81;5036526;28;45471;-52
2023/01/31 09:35:10;;;;;;;;;11.00;7.50;;;;;7.23;64.27;102145.16;5018784;28;45465;-52
2023/01/31 09:37:36;;;;;;;;;3.00;3.00;;;;;7.19;64.03;102143.38;5036869;28;45609;-50
2023/01/31 09:40:03;;;;;;;;;6.00;5.00;;;;;7.20;64.46;102146.84;5036822;28;45514;-49
2023/01/31 09:42:32;;;;;;;;;5.00;5.00;;;;;7.22;64.22;102139.91;5036561;28;45487;-49
2023/01/31 09:45:01;;;;;;;;;10.00;6.00;;;;;7.23;64.39;102137.28;5036561;28;45544;-45
2023/01/31 09:47:35;;;;;;;;;12.00;8.25;;;;;7.20;64.48;102153.00;5036584;28;45389;-53
2023/01/31 09:50:27;;;;;;;;;6.50;5.75;;;;;7.25;63.82;102142.53;5035546;28;45471;-49
2023/01/31 09:52:52;;;;;;;;;5.00;3.00;;;;;7.26;63.72;102155.63;5027922;28;45487;-48
2023/01/31 09:55:41;;;;;;;;;7.00;7.00;;;;;7.21;63.91;102149.50;5036470;28;45475;-53
2023/01/31 09:58:24;;;;;;;;;6.00;6.00;;;;;7.19;63.96;102152.97;5036335;28;45459;-49
2023/01/31 10:01:01;;;;;;;;;6.75;5.25;;;;;7.17;64.06;102147.72;5034239;28;45416;-50
2023/01/31 10:03:45;;;;;;;;;6.75;6.75;;;;;7.17;64.16;102152.94;5035612;28;45484;-52
2023/01/31 10:06:34;;;;;;;;;10.00;7.00;;;;;7.17;63.93;102158.19;5036449;28;45536;-47
2023/01/31 10:09:15;;;;;;;;;11.00;9.00;;;;;7.23;64.67;102154.75;5024860;28;45533;-52
2023/01/31 10:11:50;;;;;;;;;9.50;7.00;;;;;7.22;63.67;102145.13;5035891;28;46377;-53
2023/01/31 10:14:46;;;;;;;;;10.00;10.00;;;;;7.23;63.72;102139.91;5035977;28;45428;-56
2023/01/31 10:17:14;;;;;;;;;10.50;9.75;;;;;7.29;64.07;102142.53;5036161;28;45488;-53
2023/01/31 10:19:53;;;;;;;;;11.50;10.50;;;;;7.30;64.58;102143.41;5035763;28;45654;-50
2023/01/31 10:22:45;;;;;;;;;9.25;9.25;;;;;7.33;63.36;102153.00;5036060;28;45442;-53
2023/01/31 10:26:05;;;;;;;;;5.25;5.25;;;;;7.39;64.02;102160.88;5035205;28;45471;-51
2023/01/31 10:28:56;;;;;;;;;10.00;9.25;;;;;7.37;63.30;102160.03;4974018;28;45438;-49
2023/01/31 10:31:34;;;;;;;;;8.25;8.25;;;;;7.41;63.86;102172.22;5034219;28;45555;-49
2023/01/31 10:34:20;;;;;;;;;7.75;7.75;;;;;7.41;63.10;102161.75;5035182;28;46270;-50
2023/01/31 10:37:13;;;;;;;;;7.00;7.00;;;;;7.42;62.97;102153.94;4994462;28;45572;-54
2023/01/31 10:39:53;;;;;;;;;16.00;16.00;;;;;7.42;63.64;102153.06;5024797;28;45427;-50
2023/01/31 10:42:33;;;;;;;;;10.00;10.00;;;;;7.46;63.00;102139.97;5035623;28;45444;-51
2023/01/31 10:45:01;;;;;;;;;14.00;11.00;;;;;7.51;63.73;102139.97;5035511;28;46210;-49
2023/01/31 10:47:35;;;;;;;;;8.00;7.00;;;;;7.56;63.16;102135.63;5035265;28;45448;-50
2023/01/31 10:50:10;;;;;;;;;11.25;8.00;;;;;7.54;62.77;102142.59;5035673;28;45427;-49
2023/01/31 10:52:47;;;;;;;;;11.25;11.25;;;;;7.55;62.43;102141.75;5035721;28;45488;-46
2023/01/31 10:55:38;;;;;;;;;18.25;18.25;;;;;7.59;62.85;102140.00;5022546;28;45695;-50
2023/01/31 10:58:10;;;;;;;;;21.00;20.00;;;;;7.60;62.86;102145.22;5035378;28;45452;-52
2023/01/31 11:00:35;;;;;;;;;16.25;16.25;;;;;7.65;63.28;102140.00;5034191;28;45349;-50
2023/01/31 11:03:00;;;;;;;;;10.00;7.25;;;;;7.66;62.93;102137.41;5035222;28;45371;-51
2023/01/31 11:05:28;;;;;;;;;6.00;6.00;;;;;7.68;62.90;102132.16;5034629;28;45459;-48
2023/01/31 11:08:00;;;;;;;;;10.75;10.25;;;;;7.66;63.08;102126.94;5035424;28;45710;-52
2023/01/31 11:10:28;;;;;;;;;11.50;10.00;;;;;7.74;63.24;102121.69;5035326;28;45447;-54
2023/01/31 11:13:03;;;;;;;;;10.00;10.00;;;;;7.77;62.35;102128.69;5035116;28;45515;-49
2023/01/31 11:15:37;;;;;;;;;10.75;7.25;;;;;7.79;63.00;102108.59;5034882;28;45441;-53
2023/01/31 11:18:02;;;;;;;;;8.75;8.75;;;;;7.82;62.79;102101.63;5033132;28;45492;-49
2023/01/31 11:20:31;;;;;;;;;7.50;6.50;;;;;7.83;62.39;102102.50;5034959;28;45416;-51
2023/01/31 11:22:59;;;;;;;;;12.00;10.50;;;;;7.84;62.73;102102.47;5035255;28;45415;-52
2023/01/31 11:25:28;;;;;;;;;12.00;12.00;;;;;7.84;62.70;102096.38;5034712;28;45491;-49
2023/01/31 11:27:58;;;;;;;;;9.50;6.00;;;;;7.87;62.41;102098.97;5034913;28;45524;-54
2023/01/31 11:30:34;;;;;;;;;9.75;7.75;;;;;7.88;62.25;102103.38;5033402;28;45564;-50
2023/01/31 11:33:00;;;;;;;;;8.75;8.50;;;;;7.90;62.94;102096.38;5034686;28;45360;-51
2023/01/31 11:35:28;;;;;;;;;9.50;8.50;;;;;7.93;62.83;102089.41;5034634;28;46200;-52
2023/01/31 11:37:58;;;;;;;;;7.00;7.00;;;;;7.98;62.91;102097.25;5033601;28;45361;-47
2023/01/31 11:40:35;;;;;;;;;11.50;10.25;;;;;8.00;62.60;102074.53;5032916;28;45404;-53
2023/01/31 11:43:02;;;;;;;;;8.25;7.75;;;;;8.09;62.36;102078.91;5034821;28;45353;-49
2023/01/31 11:45:37;;;;;;;;;10.75;8.50;;;;;8.12;62.82;102077.16;5034466;28;46093;-49
2023/01/31 11:48:17;;;;;;;;;6.75;5.75;;;;;8.16;62.86;102072.75;5033532;28;45505;-52